createdAt,value
2018-04-27T00:00:40.604Z,53.90
2018-04-27T00:03:07.375Z,54.00
2018-04-27T00:05:34.704Z,54.90
2018-04-27T00:08:00.976Z,53.90
2018-04-27T00:10:27.914Z,54.80
2018-04-27T00:12:54.131Z,54.40
2018-04-27T00:15:21.291Z,53.90
2018-04-27T00:17:47.502Z,54.50
2018-04-27T00:20:13.748Z,54.40
2018-04-27T00:22:39.934Z,54.40
2018-04-27T00:25:06.127Z,54.40
2018-04-27T00:27:33.106Z,54.10
2018-04-27T00:29:59.312Z,54.10
2018-04-27T00:32:25.584Z,54.20
2018-04-27T00:34:51.827Z,54.50
2018-04-27T00:37:18.023Z,55.30
2018-04-27T00:39:45.186Z,55.90
2018-04-27T00:42:11.654Z,54.20
2018-04-27T00:44:37.866Z,54.20
2018-04-27T00:47:04.205Z,55.20
2018-04-27T00:49:30.852Z,54.40
2018-04-27T00:51:57.283Z,54.30
2018-04-27T00:54:24.634Z,54.40
2018-04-27T00:56:51.704Z,54.30
2018-04-27T00:59:19.042Z,54.60
2018-04-27T01:01:46.232Z,54.40
2018-04-27T01:04:13.390Z,54.60
2018-04-27T01:06:41.111Z,54.70
2018-04-27T01:09:09.029Z,55.10
2018-04-27T01:11:35.430Z,55.10
2018-04-27T01:14:02.734Z,56.20
2018-04-27T01:16:29.006Z,56.10
2018-04-27T01:18:56.109Z,57.20
2018-04-27T01:21:22.707Z,56.40
2018-04-27T01:23:49.968Z,56.50
2018-04-27T01:26:16.175Z,56.00
2018-04-27T01:28:43.324Z,57.10
2018-04-27T01:31:09.895Z,56.30
2018-04-27T01:33:37.026Z,56.80
2018-04-27T01:36:03.393Z,56.10
2018-04-27T01:38:29.798Z,55.80
2018-04-27T01:40:56.279Z,56.40
2018-04-27T01:43:22.968Z,55.80
2018-04-27T01:45:49.231Z,55.80
2018-04-27T01:48:15.698Z,56.00
2018-04-27T01:50:42.285Z,56.00
2018-04-27T01:53:09.241Z,56.60
2018-04-27T01:55:36.089Z,56.20
2018-04-27T01:58:02.714Z,56.70
2018-04-27T02:00:29.250Z,56.40
2018-04-27T02:02:55.631Z,56.70
2018-04-27T02:05:22.260Z,56.50
2018-04-27T02:10:16.879Z,56.60
2018-04-27T02:12:44.232Z,56.60
2018-04-27T02:15:10.868Z,57.10
2018-04-27T02:17:37.403Z,57.60
2018-04-27T02:20:03.764Z,57.00
2018-04-27T02:22:31.350Z,57.60
2018-04-27T02:24:57.764Z,57.50
2018-04-27T02:27:24.351Z,57.00
2018-04-27T02:29:51.472Z,57.00
2018-04-27T02:32:20.007Z,57.10
2018-04-27T02:34:49.945Z,57.60
2018-04-27T02:37:19.197Z,57.30
2018-04-27T02:39:45.736Z,56.90
2018-04-27T02:42:12.382Z,57.10
2018-04-27T02:44:38.782Z,57.10
2018-04-27T02:47:05.447Z,57.10
2018-04-27T02:49:32.916Z,57.00
2018-04-27T02:52:00.122Z,57.60
2018-04-27T02:54:27.644Z,56.90
2018-04-27T02:56:54.170Z,56.90
2018-04-27T02:59:20.745Z,58.00
2018-04-27T03:01:47.620Z,58.60
2018-04-27T03:04:13.921Z,57.50
2018-04-27T03:06:41.217Z,58.20
2018-04-27T03:09:07.850Z,58.20
2018-04-27T03:11:34.131Z,57.90
2018-04-27T03:14:01.367Z,58.70
2018-04-27T03:16:27.668Z,57.50
2018-04-27T03:18:54.031Z,57.40
2018-04-27T03:21:21.801Z,57.40
2018-04-27T03:23:49.233Z,57.40
2018-04-27T03:26:15.423Z,57.40
2018-04-27T03:28:42.544Z,59.70
2018-04-27T03:31:09.068Z,59.70
2018-04-27T03:33:36.352Z,59.20
2018-04-27T03:36:04.400Z,58.80
2018-04-27T03:38:33.107Z,58.70
2018-04-27T03:41:01.948Z,58.50
2018-04-27T03:43:28.621Z,58.80
2018-04-27T03:45:55.071Z,58.10
2018-04-27T03:48:22.280Z,59.70
2018-04-27T03:50:48.801Z,60.40
2018-04-27T03:53:15.317Z,59.80
2018-04-27T03:55:41.664Z,59.80
2018-04-27T03:58:09.497Z,59.20
2018-04-27T04:00:48.423Z,59.80
2018-04-27T04:03:27.622Z,59.50
2018-04-27T04:05:54.316Z,59.50
2018-04-27T04:08:20.747Z,60.00
2018-04-27T04:10:47.155Z,59.80
2018-04-27T04:13:13.748Z,60.30
2018-04-27T04:15:40.325Z,59.90
2018-04-27T04:18:07.042Z,60.50
2018-04-27T04:20:33.357Z,60.20
2018-04-27T04:22:59.990Z,60.20
2018-04-27T04:25:26.628Z,60.00
2018-04-27T04:27:53.480Z,59.80
2018-04-27T04:30:19.905Z,60.50
2018-04-27T04:32:46.251Z,61.10
2018-04-27T04:35:12.501Z,61.00
2018-04-27T04:37:38.883Z,61.30
2018-04-27T04:40:05.391Z,61.30
2018-04-27T04:42:32.652Z,70.30
2018-04-27T04:44:58.963Z,61.50
2018-04-27T04:47:25.380Z,61.70
2018-04-27T04:49:51.794Z,61.00
2018-04-27T04:52:18.097Z,60.10
2018-04-27T04:54:44.264Z,60.40
2018-04-27T04:57:10.489Z,60.20
2018-04-27T04:59:36.733Z,60.90
2018-04-27T05:02:02.968Z,64.70
2018-04-27T05:04:29.555Z,61.40
2018-04-27T05:06:56.204Z,58.60
2018-04-27T05:09:22.611Z,62.10
2018-04-27T05:11:48.878Z,58.50
2018-04-27T05:14:15.153Z,60.30
2018-04-27T05:16:42.141Z,59.60
2018-04-27T05:19:08.414Z,59.30
2018-04-27T05:21:34.659Z,58.60
2018-04-27T05:24:01.784Z,55.70
2018-04-27T05:26:28.043Z,55.70
2018-04-27T05:28:55.367Z,56.80
2018-04-27T05:31:24.743Z,57.00
2018-04-27T05:33:52.256Z,55.70
2018-04-27T05:36:19.250Z,56.60
2018-04-27T05:38:45.997Z,56.20
2018-04-27T05:41:13.548Z,56.90
2018-04-27T05:43:40.202Z,56.60
2018-04-27T05:46:06.849Z,57.20
2018-04-27T05:48:34.045Z,57.00
2018-04-27T05:51:01.508Z,55.30
2018-04-27T05:53:27.991Z,55.90
2018-04-27T05:55:54.858Z,56.20
2018-04-27T05:58:21.969Z,56.20
2018-04-27T06:00:49.552Z,55.10
2018-04-27T06:03:16.612Z,55.60
2018-04-27T06:05:43.970Z,56.90
2018-04-27T06:08:10.525Z,55.20
2018-04-27T06:10:36.808Z,56.10
2018-04-27T06:13:03.039Z,55.60
2018-04-27T06:15:29.366Z,56.00
2018-04-27T06:17:55.689Z,55.60
2018-04-27T06:20:21.938Z,56.20
2018-04-27T06:22:48.211Z,55.40
2018-04-27T06:25:15.182Z,55.20
2018-04-27T06:27:41.382Z,55.10
2018-04-27T06:30:09.464Z,53.90
2018-04-27T06:32:35.700Z,55.20
2018-04-27T06:35:02.669Z,53.80
2018-04-27T06:37:28.982Z,53.70
2018-04-27T06:39:55.947Z,53.00
2018-04-27T06:42:22.203Z,54.60
2018-04-27T06:44:48.503Z,54.00
2018-04-27T06:47:16.943Z,53.00
2018-04-27T06:49:43.581Z,51.70
2018-04-27T06:52:13.169Z,52.70
2018-04-27T06:54:39.494Z,50.30
2018-04-27T06:57:05.755Z,50.80
2018-04-27T06:59:32.804Z,52.90
2018-04-27T07:01:58.980Z,51.00
2018-04-27T07:04:25.259Z,51.20
2018-04-27T07:06:52.242Z,51.90
2018-04-27T07:09:18.535Z,49.60
2018-04-27T07:11:45.641Z,52.60
2018-04-27T07:14:11.932Z,52.70
2018-04-27T07:16:38.864Z,51.30
2018-04-27T07:19:05.806Z,49.00
2018-04-27T07:21:33.164Z,46.70
2018-04-27T07:24:00.134Z,48.90
2018-04-27T07:26:26.373Z,48.90
2018-04-27T07:28:52.653Z,45.80
2018-04-27T07:31:18.888Z,46.40
2018-04-27T07:33:45.143Z,47.70
2018-04-27T07:36:12.138Z,46.80
2018-04-27T07:38:38.421Z,45.80
2018-04-27T07:41:05.388Z,45.90
2018-04-27T07:43:31.660Z,45.90
2018-04-27T07:45:57.930Z,44.80
2018-04-27T07:48:24.542Z,45.00
2018-04-27T07:50:50.780Z,45.50
2018-04-27T07:53:17.833Z,47.50
2018-04-27T07:55:44.536Z,44.60
2018-04-27T07:58:12.042Z,44.40
2018-04-27T08:00:39.850Z,46.80
2018-04-27T08:03:06.190Z,45.30
2018-04-27T08:05:32.387Z,45.30
2018-04-27T08:07:58.635Z,44.00
2018-04-27T08:10:24.847Z,44.20
2018-04-27T08:12:51.093Z,42.00
2018-04-27T08:15:18.163Z,42.30
2018-04-27T08:17:44.373Z,42.90
2018-04-27T08:23:01.562Z,42.00
2018-04-27T08:25:29.511Z,41.20
2018-04-27T08:27:56.131Z,37.00
2018-04-27T08:30:22.356Z,36.90
2018-04-27T08:32:48.588Z,38.90
2018-04-27T08:35:16.140Z,36.40
2018-04-27T08:37:42.767Z,37.70
2018-04-27T08:40:09.034Z,37.50
2018-04-27T08:42:35.434Z,38.80
2018-04-27T08:45:02.057Z,38.30
2018-04-27T08:47:28.270Z,38.50
2018-04-27T08:49:55.236Z,36.90
2018-04-27T08:52:21.498Z,37.10
2018-04-27T08:54:47.784Z,37.80
2018-04-27T08:57:14.532Z,38.30
2018-04-27T08:59:40.745Z,36.50
2018-04-27T09:02:07.065Z,39.00
2018-04-27T09:04:34.446Z,37.10
2018-04-27T09:07:00.657Z,35.90
2018-04-27T09:09:27.634Z,36.60
2018-04-27T09:11:53.888Z,36.70
2018-04-27T09:14:20.741Z,35.70
2018-04-27T09:16:47.046Z,36.00
2018-04-27T09:19:13.310Z,35.50
2018-04-27T09:21:39.557Z,35.00
2018-04-27T09:24:05.822Z,33.70
2018-04-27T09:26:32.153Z,36.40
2018-04-27T09:28:58.436Z,34.80
2018-04-27T09:31:24.693Z,35.50
2018-04-27T09:33:51.986Z,33.60
2018-04-27T09:36:18.220Z,34.40
2018-04-27T09:38:44.459Z,33.80
2018-04-27T09:41:10.790Z,34.20
2018-04-27T09:43:37.070Z,32.70
2018-04-27T09:46:04.029Z,33.40
2018-04-27T09:48:30.663Z,32.70
2018-04-27T09:50:56.899Z,33.00
2018-04-27T09:53:23.121Z,32.70
2018-04-27T09:55:49.356Z,29.20
2018-04-27T09:58:15.637Z,30.60
2018-04-27T10:00:43.329Z,30.70
2018-04-27T10:03:10.355Z,30.00
2018-04-27T10:05:36.640Z,27.50
2018-04-27T10:08:03.278Z,27.60
2018-04-27T10:10:29.521Z,28.10
2018-04-27T10:12:55.751Z,26.60
2018-04-27T10:15:22.039Z,27.10
2018-04-27T10:17:49.064Z,27.40
2018-04-27T10:20:15.857Z,26.90
2018-04-27T10:22:42.085Z,27.50
2018-04-27T10:25:08.316Z,27.70
2018-04-27T10:27:34.673Z,26.50
2018-04-27T10:30:01.251Z,26.80
2018-04-27T10:32:28.230Z,26.80
2018-04-27T10:34:54.479Z,26.50
2018-04-27T10:37:20.737Z,26.00
2018-04-27T10:39:46.964Z,25.40
2018-04-27T10:42:13.222Z,25.90
2018-04-27T10:44:40.215Z,25.50
2018-04-27T10:47:06.481Z,26.10
2018-04-27T10:49:34.188Z,27.20
2018-04-27T10:52:00.447Z,26.70
2018-04-27T10:54:26.641Z,25.80
2018-04-27T10:56:52.872Z,27.10
2018-04-27T10:59:19.208Z,26.70
2018-04-27T11:01:45.410Z,26.90
2018-04-27T11:04:12.788Z,26.30
2018-04-27T11:06:39.099Z,27.10
2018-04-27T11:09:06.142Z,28.10
2018-04-27T11:11:33.583Z,27.00
2018-04-27T11:14:00.244Z,27.00
2018-04-27T11:16:27.214Z,26.90
2018-04-27T11:18:54.205Z,26.80
2018-04-27T11:21:20.464Z,27.30
2018-04-27T11:23:47.457Z,26.10
2018-04-27T11:26:13.774Z,27.90
2018-04-27T11:28:39.973Z,28.90
2018-04-27T11:31:06.172Z,27.80
2018-04-27T11:33:32.353Z,27.60
2018-04-27T11:35:58.714Z,27.70
2018-04-27T11:38:24.978Z,28.40
2018-04-27T11:40:51.998Z,28.40
2018-04-27T11:43:18.572Z,28.00
2018-04-27T11:45:45.561Z,29.50
2018-04-27T11:48:11.757Z,28.30
2018-04-27T11:50:38.068Z,27.20
2018-04-27T11:53:04.773Z,27.30
2018-04-27T11:55:31.067Z,28.20
2018-04-27T11:57:57.385Z,28.30
2018-04-27T12:00:25.262Z,28.80
2018-04-27T12:02:51.569Z,29.10
2018-04-27T12:05:18.540Z,26.70
2018-04-27T12:07:44.805Z,26.60
2018-04-27T12:10:11.013Z,26.70
2018-04-27T12:12:37.341Z,27.40
2018-04-27T12:15:03.565Z,27.20
2018-04-27T12:17:29.848Z,28.40
2018-04-27T12:19:56.188Z,28.20
2018-04-27T12:22:22.428Z,28.00
2018-04-27T12:24:49.587Z,29.00
2018-04-27T12:27:16.570Z,28.30
2018-04-27T12:29:42.795Z,27.00
2018-04-27T12:32:09.048Z,26.00
2018-04-27T12:34:35.400Z,28.00
2018-04-27T12:37:01.734Z,27.90
2018-04-27T12:39:27.978Z,26.90
2018-04-27T12:41:54.961Z,26.60
2018-04-27T12:44:21.240Z,26.70
2018-04-27T12:46:48.091Z,25.90
2018-04-27T12:49:15.148Z,27.80
2018-04-27T12:51:42.123Z,26.60
2018-04-27T12:54:08.367Z,26.50
2018-04-27T12:56:34.676Z,27.10
2018-04-27T12:59:03.150Z,25.80
2018-04-27T13:01:29.473Z,27.50
2018-04-27T13:03:56.486Z,26.70
2018-04-27T13:06:23.102Z,27.30
2018-04-27T13:08:50.515Z,25.70
2018-04-27T13:11:17.525Z,26.80
2018-04-27T13:13:43.813Z,27.20
2018-04-27T13:16:10.127Z,26.60
2018-04-27T13:18:37.107Z,26.20
2018-04-27T13:21:03.356Z,26.20
2018-04-27T13:23:29.581Z,27.20
2018-04-27T13:25:56.116Z,27.60
2018-04-27T13:28:22.360Z,27.80
2018-04-27T13:30:48.632Z,28.00
2018-04-27T13:33:14.860Z,28.50
2018-04-27T13:35:41.540Z,25.40
2018-04-27T13:38:07.877Z,26.50
2018-04-27T13:40:35.152Z,27.80
2018-04-27T13:43:01.551Z,26.90
2018-04-27T13:45:28.933Z,28.80
2018-04-27T13:47:55.154Z,27.20
2018-04-27T13:50:21.835Z,27.70
2018-04-27T13:52:48.818Z,27.60
2018-04-27T13:55:15.417Z,28.50
2018-04-27T13:57:42.446Z,29.50
2018-04-27T14:00:08.794Z,28.70
2018-04-27T14:02:35.515Z,28.30
2018-04-27T14:05:01.715Z,27.50
2018-04-27T14:07:28.000Z,27.70
2018-04-27T14:09:55.024Z,29.00
2018-04-27T14:12:21.275Z,28.60
2018-04-27T14:14:48.519Z,28.80
2018-04-27T14:17:16.869Z,28.00
2018-04-27T14:19:43.261Z,29.10
2018-04-27T14:22:09.507Z,28.30
2018-04-27T14:24:35.922Z,28.60
2018-04-27T14:27:02.229Z,29.40
2018-04-27T14:29:29.301Z,29.80
2018-04-27T14:31:55.551Z,29.50
2018-04-27T14:34:21.791Z,28.80
2018-04-27T14:36:47.992Z,28.80
2018-04-27T14:39:14.251Z,28.10
2018-04-27T14:41:40.463Z,29.40
2018-04-27T14:44:06.744Z,30.60
2018-04-27T14:46:34.510Z,29.20
2018-04-27T14:49:00.896Z,29.90
2018-04-27T14:51:27.876Z,29.60
2018-04-27T14:53:54.179Z,29.90
2018-04-27T14:56:21.304Z,28.50
2018-04-27T14:58:47.551Z,29.50
2018-04-27T15:01:13.823Z,29.60
2018-04-27T15:03:40.061Z,29.00
2018-04-27T15:06:07.095Z,29.00
2018-04-27T15:08:33.321Z,29.50
2018-04-27T15:11:01.180Z,29.60
2018-04-27T15:13:27.611Z,29.30
2018-04-27T15:15:54.592Z,30.00
2018-04-27T15:18:21.865Z,29.90
2018-04-27T15:20:48.841Z,31.00
2018-04-27T15:23:15.156Z,29.80
2018-04-27T15:25:41.413Z,29.50
2018-04-27T15:28:07.749Z,30.10
2018-04-27T15:30:33.976Z,30.90
2018-04-27T15:33:00.307Z,31.10
2018-04-27T15:35:26.696Z,31.20
2018-04-27T15:37:53.013Z,31.50
2018-04-27T15:40:20.045Z,30.60
2018-04-27T15:42:46.334Z,30.60
2018-04-27T15:45:12.601Z,29.20
2018-04-27T15:47:38.885Z,29.30
2018-04-27T15:50:05.159Z,30.30
2018-04-27T15:52:31.484Z,30.40
2018-04-27T15:54:57.719Z,29.90
2018-04-27T15:57:25.435Z,31.40
2018-04-27T15:59:51.698Z,29.80
2018-04-27T16:02:18.006Z,29.80
2018-04-27T16:04:44.350Z,30.10
2018-04-27T16:07:10.592Z,30.90
2018-04-27T16:09:36.853Z,30.90
2018-04-27T16:12:03.880Z,31.70
2018-04-27T16:14:30.140Z,31.30
2018-04-27T16:16:57.202Z,32.10
2018-04-27T16:19:27.966Z,32.20
2018-04-27T16:21:54.263Z,31.90
2018-04-27T16:24:20.535Z,32.10
2018-04-27T16:26:47.666Z,32.20
2018-04-27T16:29:13.978Z,31.80
2018-04-27T16:31:40.225Z,32.40
2018-04-27T16:34:06.488Z,31.00
2018-04-27T16:36:32.735Z,32.40
2018-04-27T16:38:59.020Z,31.40
2018-04-27T16:41:26.216Z,32.30
2018-04-27T16:43:53.221Z,32.10
2018-04-27T16:46:19.436Z,32.40
2018-04-27T16:48:45.670Z,31.90
2018-04-27T16:51:11.979Z,32.10
2018-04-27T16:53:38.205Z,34.00
2018-04-27T16:56:05.271Z,31.80
2018-04-27T16:58:31.640Z,32.30
2018-04-27T17:00:57.870Z,32.50
2018-04-27T17:03:24.167Z,33.00
2018-04-27T17:05:50.532Z,32.30
2018-04-27T17:08:16.785Z,33.80
2018-04-27T17:10:43.804Z,32.90
2018-04-27T17:13:10.080Z,34.20
2018-04-27T17:15:38.130Z,33.40
2018-04-27T17:27:50.542Z,34.00
2018-04-27T17:30:16.797Z,33.40
2018-04-27T17:32:45.682Z,34.50
2018-04-27T17:35:11.985Z,34.60
2018-04-27T17:37:38.671Z,34.40
2018-04-27T17:40:04.948Z,33.40
2018-04-27T17:42:31.921Z,34.60
2018-04-27T17:44:58.162Z,33.80
2018-04-27T17:47:24.442Z,33.90
2018-04-27T17:49:51.521Z,34.50
2018-04-27T17:52:17.762Z,34.40
2018-04-27T17:54:44.072Z,33.70
2018-04-27T17:57:10.332Z,33.60
2018-04-27T17:59:36.568Z,34.70
2018-04-27T18:02:03.057Z,34.40
2018-04-27T18:04:30.157Z,34.60
2018-04-27T18:06:56.411Z,34.60
2018-04-27T18:09:22.654Z,34.80
2018-04-27T18:11:49.796Z,35.40
2018-04-27T18:14:17.005Z,35.00
2018-04-27T18:16:43.325Z,35.90
2018-04-27T18:19:09.627Z,35.80
2018-04-27T18:21:37.731Z,37.40
2018-04-27T18:24:04.068Z,36.80
2018-04-27T18:26:31.078Z,35.70
2018-04-27T18:28:58.137Z,36.20
2018-04-27T18:31:25.111Z,37.50
2018-04-27T18:33:51.418Z,38.30
2018-04-27T18:36:17.657Z,37.70
2018-04-27T18:38:43.938Z,37.60
2018-04-27T18:41:11.013Z,38.60
2018-04-27T18:43:38.422Z,39.60
2018-04-27T18:46:04.686Z,39.00
2018-04-27T18:48:31.354Z,39.40
2018-04-27T18:50:58.240Z,39.70
2018-04-27T18:53:24.522Z,38.70
2018-04-27T18:55:51.984Z,39.30
2018-04-27T18:58:19.189Z,39.40
2018-04-27T19:00:45.460Z,40.10
2018-04-27T19:03:12.796Z,39.50
2018-04-27T19:05:39.446Z,39.60
2018-04-27T19:08:06.554Z,40.20
2018-04-27T19:10:33.767Z,39.70
2018-04-27T19:13:00.483Z,39.80
2018-04-27T19:15:27.055Z,39.80
2018-04-27T19:18:01.908Z,40.30
2018-04-27T19:20:28.200Z,40.20
2018-04-27T19:22:57.184Z,40.70
2018-04-27T19:25:24.213Z,41.10
2018-04-27T19:27:50.720Z,43.10
2018-04-27T19:30:19.827Z,42.20
2018-04-27T19:32:46.344Z,41.70
2018-04-27T19:35:12.618Z,42.90
2018-04-27T19:37:39.855Z,44.20
2018-04-27T19:40:07.219Z,42.50
2018-04-27T19:42:34.939Z,44.00
2018-04-27T19:45:01.403Z,43.90
2018-04-27T19:47:28.106Z,43.50
2018-04-27T19:49:54.424Z,43.60
2018-04-27T19:52:21.187Z,43.40
2018-04-27T19:54:48.127Z,44.50
2018-04-27T19:57:20.310Z,43.90
2018-04-27T19:59:47.066Z,44.20
2018-04-27T20:02:14.900Z,44.90
2018-04-27T20:04:41.565Z,44.60
2018-04-27T20:07:10.351Z,44.50
2018-04-27T20:09:37.055Z,45.60
2018-04-27T20:12:05.589Z,45.30
2018-04-27T20:14:33.782Z,45.90
2018-04-27T20:17:05.487Z,46.70
2018-04-27T20:19:37.251Z,46.80
2018-04-27T20:22:40.234Z,46.70
2018-04-27T20:25:07.426Z,47.40
2018-04-27T20:27:36.766Z,46.90
2018-04-27T20:30:05.472Z,47.90
2018-04-27T20:32:46.067Z,46.90
2018-04-27T20:35:16.372Z,47.20
2018-04-27T20:38:07.397Z,46.60
2018-04-27T20:40:43.386Z,47.20
2018-04-27T20:43:40.820Z,47.10
2018-04-27T20:46:07.921Z,47.50
2018-04-27T20:48:36.117Z,47.70
2018-04-27T20:51:07.098Z,47.80
2018-04-27T20:56:35.917Z,47.30
2018-04-27T20:59:05.361Z,48.50
2018-04-27T21:01:32.213Z,48.50
2018-04-27T21:04:00.051Z,48.00
2018-04-27T21:06:27.288Z,48.50
2018-04-27T21:08:54.941Z,48.80
2018-04-27T21:11:25.888Z,49.40
2018-04-27T21:13:53.116Z,48.70
2018-04-27T21:16:19.796Z,48.80
2018-04-27T21:18:47.406Z,49.20
2018-04-27T21:21:14.631Z,49.10
2018-04-27T21:23:53.603Z,48.90
2018-04-27T21:26:23.633Z,49.10
2018-04-27T21:28:50.877Z,49.20
2018-04-27T21:31:17.160Z,49.20
2018-04-27T21:33:52.609Z,50.40
2018-04-27T21:36:19.738Z,50.60
2018-04-27T21:41:42.931Z,50.10
2018-04-27T21:44:14.078Z,49.70
2018-04-27T21:46:40.372Z,50.50
2018-04-27T21:49:23.101Z,51.00
2018-04-27T21:51:53.992Z,51.80
2018-04-27T21:54:20.322Z,51.10
2018-04-27T21:57:00.157Z,51.50
2018-04-27T21:59:48.386Z,51.80
2018-04-27T22:02:25.637Z,51.60
2018-04-27T22:04:51.896Z,50.60
2018-04-27T22:07:18.888Z,51.90
2018-04-27T22:09:48.104Z,50.70
2018-04-27T22:12:14.669Z,51.60
2018-04-27T22:14:41.663Z,52.00
2018-04-27T22:17:10.034Z,51.90
2018-04-27T22:19:36.731Z,52.00
2018-04-27T22:22:04.444Z,52.30
2018-04-27T22:34:16.106Z,53.40
2018-04-27T22:36:43.312Z,53.50
2018-04-27T22:42:22.449Z,53.50
2018-04-27T22:48:07.472Z,53.70
2018-04-27T22:50:33.764Z,53.60
2018-04-27T22:52:59.985Z,53.40
2018-04-27T22:55:28.622Z,54.00
2018-04-27T22:57:54.875Z,53.40
2018-04-27T23:00:22.637Z,53.30
2018-04-27T23:02:48.949Z,53.40
2018-04-27T23:05:21.766Z,54.00
2018-04-27T23:07:49.137Z,53.30
2018-04-27T23:10:16.388Z,53.70
2018-04-27T23:12:48.878Z,53.80
2018-04-27T23:15:15.119Z,53.90
2018-04-27T23:17:42.476Z,53.70
2018-04-27T23:20:14.203Z,54.60
2018-04-27T23:22:41.430Z,54.40
2018-04-27T23:25:08.953Z,54.40
2018-04-27T23:27:36.354Z,55.10
2018-04-27T23:30:02.956Z,55.10
2018-04-27T23:32:30.850Z,56.10
2018-04-27T23:34:57.145Z,55.90
2018-04-27T23:37:24.592Z,55.40
2018-04-27T23:39:51.931Z,55.90
2018-04-27T23:42:18.166Z,56.80
2018-04-27T23:44:47.462Z,56.70
2018-04-27T23:47:13.751Z,57.10
2018-04-27T23:49:40.042Z,56.40
2018-04-27T23:52:08.129Z,57.70
2018-04-27T23:54:35.261Z,57.60
2018-04-27T23:57:02.402Z,56.70
